Time;durP1;ratioP1;P1;durP2;ratioP2;P2;SDS_P1;SDS_P2;PMS_P1;PMS_P2;Temp;Humidity;BMP_temperature;BMP_pressure;BME280_temperature;BME280_humidity;BME280_pressure;Samples;Min_cycle;Max_cycle;Signal;HPM_P1;HPM_P2
2023/08/25 00:01:15;;;;;;;0.10;0.10;;;;;;;17.34;100.00;100793.38;5114573;28;20027;-52
2023/08/25 00:03:41;;;;;;;0.10;0.10;;;;;;;17.32;100.00;100796.84;5115513;28;20024;-52
2023/08/25 00:06:06;;;;;;;0.00;0.00;;;;;;;17.33;100.00;100802.06;5115874;27;20057;-52
2023/08/25 00:08:31;;;;;;;0.10;0.10;;;;;;;17.41;100.00;100802.91;5114581;28;20024;-52
2023/08/25 00:10:56;;;;;;;0.10;0.10;;;;;;;17.42;100.00;100803.81;5115454;28;20077;-50
2023/08/25 00:13:22;;;;;;;0.10;0.10;;;;;;;17.31;100.00;100801.16;5115082;28;20546;-52
2023/08/25 00:15:49;;;;;;;0.00;0.00;;;;;;;17.13;100.00;100799.41;5115079;28;20027;-52
2023/08/25 00:18:14;;;;;;;0.10;0.10;;;;;;;17.11;100.00;100795.94;5115203;28;20020;-51
2023/08/25 00:20:39;;;;;;;0.00;0.00;;;;;;;17.06;100.00;100797.69;5114698;28;20043;-52
2023/08/25 00:23:04;;;;;;;0.00;0.00;;;;;;;17.08;100.00;100798.53;5114656;28;20023;-52
2023/08/25 00:25:30;;;;;;;0.00;0.00;;;;;;;17.05;100.00;100796.78;5114911;28;20107;-52
2023/08/25 00:27:56;;;;;;;0.00;0.00;;;;;;;17.10;100.00;100800.28;5115086;28;20020;-52
2023/08/25 00:30:22;;;;;;;0.10;0.10;;;;;;;17.10;100.00;100809.84;5114202;28;20023;-52
2023/08/25 00:32:47;;;;;;;0.10;0.10;;;;;;;17.05;100.00;100799.41;5115332;28;20350;-52
2023/08/25 00:35:12;;;;;;;0.00;0.00;;;;;;;17.01;100.00;100805.47;5114797;28;20045;-51
2023/08/25 00:37:37;;;;;;;0.03;0.03;;;;;;;17.09;100.00;100798.56;5114229;28;20098;-50
2023/08/25 00:40:03;;;;;;;0.10;0.10;;;;;;;17.17;100.00;100801.19;5115107;28;20051;-52
2023/08/25 00:42:29;;;;;;;0.00;0.00;;;;;;;17.18;100.00;100807.25;5113841;28;20012;-51
2023/08/25 00:44:54;;;;;;;0.00;0.00;;;;;;;17.12;100.00;100800.31;5115061;28;20051;-53
2023/08/25 00:47:20;;;;;;;0.10;0.10;;;;;;;17.05;100.00;100807.22;5114699;28;20464;-52
2023/08/25 00:49:46;;;;;;;0.10;0.10;;;;;;;16.87;100.00;100797.59;5114156;27;20019;-51
2023/08/25 00:52:14;;;;;;;0.00;0.00;;;;;;;16.87;100.00;100792.38;5114676;28;20066;-52
2023/08/25 00:54:39;;;;;;;0.10;0.10;;;;;;;16.94;100.00;100806.34;5114445;28;20083;-52
2023/08/25 00:57:05;;;;;;;0.00;0.00;;;;;;;16.90;100.00;100802.84;5113815;28;20062;-51
2023/08/25 00:59:31;;;;;;;0.10;0.10;;;;;;;16.89;100.00;100801.06;5114383;28;20039;-51
2023/08/25 01:01:57;;;;;;;0.10;0.10;;;;;;;16.86;100.00;100794.97;5114657;28;20024;-52
2023/08/25 01:04:22;;;;;;;0.00;0.00;;;;;;;16.83;100.00;100795.84;5113555;28;20072;-52
2023/08/25 01:06:48;;;;;;;0.10;0.10;;;;;;;16.82;100.00;100794.09;5114634;28;20459;-53
2023/08/25 01:09:14;;;;;;;0.00;0.00;;;;;;;16.86;100.00;100794.97;5114313;28;20497;-52
2023/08/25 01:12:13;;;;;;;0.10;0.10;;;;;;;16.90;100.00;100786.31;5113545;28;20027;-52
2023/08/25 01:14:58;;;;;;;0.10;0.10;;;;;;;16.83;100.00;100795.84;5099103;28;20042;-51
2023/08/25 01:17:39;;;;;;;0.00;0.00;;;;;;;16.86;100.00;100790.66;5113874;28;20023;-52
2023/08/25 01:20:08;;;;;;;0.10;0.10;;;;;;;16.83;100.00;100789.78;5114157;28;20035;-52
2023/08/25 01:22:52;;;;;;;0.10;0.10;;;;;;;16.85;100.00;100782.81;5113929;28;20031;-51
2023/08/25 01:25:28;;;;;;;0.10;0.10;;;;;;;16.71;100.00;100782.81;5113275;28;20078;-52
2023/08/25 01:28:05;;;;;;;0.10;0.10;;;;;;;16.74;100.00;100785.41;5113989;28;20529;-53
2023/08/25 01:30:35;;;;;;;0.10;0.10;;;;;;;16.73;100.00;100788.88;5113656;28;20497;-52
2023/08/25 01:33:01;;;;;;;0.10;0.10;;;;;;;16.75;100.00;100782.81;5112315;28;20023;-51
2023/08/25 01:35:34;;;;;;;0.00;0.00;;;;;;;16.62;100.00;100786.25;5113621;28;20059;-52
2023/08/25 01:38:05;;;;;;;0.10;0.10;;;;;;;16.63;100.00;100782.78;5113814;28;20434;-52
2023/08/25 01:40:56;;;;;;;0.00;0.00;;;;;;;16.63;100.00;100780.19;5112680;28;20027;-52
2023/08/25 01:43:26;;;;;;;0.05;0.05;;;;;;;16.65;100.00;100778.44;5081643;28;20039;-52
2023/08/25 01:45:54;;;;;;;0.10;0.10;;;;;;;16.69;100.00;100772.38;5113094;28;20102;-52
2023/08/25 01:48:20;;;;;;;0.10;0.10;;;;;;;16.65;100.00;100773.22;5113527;28;20020;-52
2023/08/25 01:50:46;;;;;;;0.00;0.00;;;;;;;16.73;100.00;100778.47;5113704;28;20039;-52
2023/08/25 01:53:12;;;;;;;0.05;0.05;;;;;;;16.76;100.00;100768.94;5112845;28;20028;-52
2023/08/25 01:55:37;;;;;;;0.10;0.10;;;;;;;16.82;100.00;100773.28;5113515;28;20027;-51
2023/08/25 01:58:03;;;;;;;0.10;0.10;;;;;;;16.80;100.00;100772.41;5113725;28;20077;-52
2023/08/25 02:00:28;;;;;;;0.10;0.10;;;;;;;16.83;100.00;100767.22;5112563;28;20024;-52
2023/08/25 02:02:55;;;;;;;0.00;0.00;;;;;;;16.88;100.00;100756.81;5113662;28;20031;-52
2023/08/25 02:05:21;;;;;;;0.10;0.10;;;;;;;16.95;100.00;100758.59;5113172;28;20024;-52
2023/08/25 02:07:46;;;;;;;0.00;0.00;;;;;;;16.96;100.00;100755.13;5112572;28;20486;-52
2023/08/25 02:10:12;;;;;;;0.10;0.10;;;;;;;16.95;100.00;100759.47;5113374;28;20028;-51
2023/08/25 02:12:37;;;;;;;0.00;0.00;;;;;;;17.04;100.00;100753.41;5113443;28;20016;-52
2023/08/25 02:15:03;;;;;;;0.10;0.10;;;;;;;17.00;100.00;100751.66;5112431;28;20485;-52
2023/08/25 02:17:28;;;;;;;0.10;0.10;;;;;;;17.17;100.00;100754.31;5113235;28;20039;-52
2023/08/25 02:19:54;;;;;;;0.00;0.00;;;;;;;17.24;100.00;100750.81;5113293;28;20023;-52
2023/08/25 02:22:19;;;;;;;0.00;0.00;;;;;;;17.31;100.00;100750.81;5112241;28;20023;-52
2023/08/25 02:24:44;;;;;;;0.00;0.00;;;;;;;17.35;100.00;100743.03;5113238;28;20027;-52
2023/08/25 02:27:10;;;;;;;0.08;0.08;;;;;;;17.33;100.00;100747.34;5113390;28;20024;-51
2023/08/25 02:29:35;;;;;;;0.08;0.08;;;;;;;17.33;100.00;100744.75;5112291;28;20489;-52
2023/08/25 02:32:03;;;;;;;0.10;0.10;;;;;;;17.36;100.00;100744.72;5113037;28;20028;-52
2023/08/25 02:34:28;;;;;;;0.10;0.10;;;;;;;17.34;100.00;100740.38;5113009;28;20102;-52
2023/08/25 02:36:54;;;;;;;0.10;0.10;;;;;;;17.44;100.00;100743.00;5112290;28;20159;-52
2023/08/25 02:39:19;;;;;;;0.10;0.10;;;;;;;17.48;100.00;100737.78;5113438;28;20019;-53
2023/08/25 02:41:44;;;;;;;0.03;0.03;;;;;;;17.50;100.00;100721.28;5113194;28;20058;-51
2023/08/25 02:44:10;;;;;;;0.10;0.10;;;;;;;17.52;100.00;100723.88;5115422;28;20140;-52
2023/08/25 02:46:35;;;;;;;0.10;0.10;;;;;;;17.56;100.00;100717.81;5116784;28;20024;-52
2023/08/25 02:49:00;;;;;;;0.10;0.10;;;;;;;17.55;100.00;100710.88;5117088;28;20030;-51
2023/08/25 02:51:26;;;;;;;0.10;0.10;;;;;;;17.56;100.00;100716.06;5116033;28;20027;-52
2023/08/25 02:53:51;;;;;;;0.10;0.10;;;;;;;17.59;100.00;100712.59;5116892;28;20047;-51
2023/08/25 02:56:16;;;;;;;0.10;0.10;;;;;;;17.57;100.00;100702.19;5116040;28;20157;-52
2023/08/25 02:58:41;;;;;;;0.08;0.08;;;;;;;17.58;100.00;100713.47;5116833;28;20152;-52
2023/08/25 03:01:13;;;;;;;0.10;0.10;;;;;;;17.60;100.00;100709.13;5116942;28;20489;-52
2023/08/25 03:03:39;;;;;;;0.00;0.00;;;;;;;17.55;100.00;100708.25;5116160;28;20024;-52
2023/08/25 03:06:04;;;;;;;0.00;0.00;;;;;;;17.56;100.00;100707.41;5116721;28;20538;-52
2023/08/25 03:08:29;;;;;;;0.03;0.03;;;;;;;17.55;100.00;100698.69;5116388;28;20562;-53
2023/08/25 03:10:55;;;;;;;0.00;0.00;;;;;;;17.55;100.00;100700.44;5116159;28;20022;-53
2023/08/25 03:13:21;;;;;;;0.00;0.00;;;;;;;17.57;100.00;100693.47;5116594;28;20059;-52
2023/08/25 03:15:48;;;;;;;0.10;0.10;;;;;;;17.56;100.00;100691.75;5116507;28;20034;-53
2023/08/25 03:18:14;;;;;;;0.10;0.10;;;;;;;17.57;100.00;100693.47;5115640;28;20019;-52
2023/08/25 03:20:39;;;;;;;0.10;0.10;;;;;;;17.60;100.00;100688.28;5116444;28;20023;-52
2023/08/25 03:23:05;;;;;;;0.10;0.10;;;;;;;17.64;100.00;100686.50;5116386;28;20012;-52
2023/08/25 03:25:30;;;;;;;0.10;0.10;;;;;;;17.63;100.00;100683.03;5115564;28;20031;-52
2023/08/25 03:27:55;;;;;;;0.10;0.10;;;;;;;17.65;100.00;100672.59;5116468;28;20024;-52
2023/08/25 03:30:21;;;;;;;0.10;0.10;;;;;;;17.67;100.00;100674.34;5116235;28;20031;-52
2023/08/25 03:32:46;;;;;;;0.00;0.00;;;;;;;17.67;100.00;100671.72;5115669;28;20058;-52
2023/08/25 03:35:11;;;;;;;0.10;0.10;;;;;;;17.67;100.00;100671.72;5116112;28;20475;-53
2023/08/25 03:37:37;;;;;;;0.00;0.00;;;;;;;17.68;100.00;100673.47;5116230;28;20544;-52
2023/08/25 03:40:03;;;;;;;0.10;0.10;;;;;;;17.71;100.00;100667.38;5115625;28;20024;-53
2023/08/25 03:42:28;;;;;;;0.10;0.10;;;;;;;17.71;100.00;100667.38;5116035;28;20094;-52
2023/08/25 03:44:54;;;;;;;0.00;0.00;;;;;;;17.66;100.00;100664.78;5116128;28;20115;-52
2023/08/25 03:47:19;;;;;;;0.10;0.10;;;;;;;17.66;100.00;100659.56;5114877;28;20024;-52
2023/08/25 03:49:45;;;;;;;0.00;0.00;;;;;;;17.70;100.00;100655.22;5116009;28;20111;-52
2023/08/25 03:52:10;;;;;;;0.00;0.00;;;;;;;17.71;100.00;100651.75;5115966;28;20028;-53
2023/08/25 03:54:35;;;;;;;0.10;0.10;;;;;;;17.67;100.00;100656.09;5113616;28;20397;-52
2023/08/25 03:57:01;;;;;;;0.10;0.10;;;;;;;17.69;100.00;100654.38;5115689;28;20066;-51
2023/08/25 03:59:26;;;;;;;0.10;0.10;;;;;;;17.70;100.00;100650.91;5114809;28;20069;-50
2023/08/25 04:01:52;;;;;;;0.00;0.00;;;;;;;17.74;100.00;100652.63;5115699;28;20051;-52
2023/08/25 04:04:17;;;;;;;0.10;0.10;;;;;;;17.75;100.00;100654.34;5115366;28;20486;-52
2023/08/25 04:06:42;;;;;;;0.00;0.00;;;;;;;17.76;100.00;100658.66;5114865;28;20811;-52
2023/08/25 04:09:08;;;;;;;0.00;0.00;;;;;;;17.80;100.00;100659.53;5115771;28;20352;-53
2023/08/25 04:11:33;;;;;;;0.10;0.10;;;;;;;17.78;100.00;100649.13;5115477;28;20035;-53
2023/08/25 04:13:58;;;;;;;0.00;0.00;;;;;;;17.79;100.00;100649.97;5114797;27;20016;-52
2023/08/25 04:16:23;;;;;;;0.10;0.10;;;;;;;17.74;100.00;100644.78;5115205;28;20432;-52
2023/08/25 04:18:49;;;;;;;0.10;0.10;;;;;;;17.77;100.00;100641.31;5115507;28;20471;-52
2023/08/25 04:21:14;;;;;;;0.10;0.10;;;;;;;17.76;100.00;100650.84;5114374;28;20504;-52
2023/08/25 04:23:39;;;;;;;0.10;0.10;;;;;;;17.73;100.00;100645.66;5115512;28;20015;-52
2023/08/25 04:26:05;;;;;;;0.10;0.10;;;;;;;17.78;100.00;100648.25;5115109;28;20390;-52
2023/08/25 04:28:30;;;;;;;0.10;0.10;;;;;;;17.72;100.00;100643.06;5114243;28;20031;-52
2023/08/25 04:30:56;;;;;;;0.00;0.00;;;;;;;17.74;100.00;100638.69;5115412;28;20375;-52
2023/08/25 04:33:21;;;;;;;0.00;0.00;;;;;;;17.67;100.00;100643.06;5114708;28;20379;-52
2023/08/25 04:35:46;;;;;;;0.10;0.10;;;;;;;17.61;100.00;100656.09;5114079;28;20035;-52
2023/08/25 04:38:12;;;;;;;0.00;0.00;;;;;;;17.60;100.00;100650.03;5114646;28;20028;-52
2023/08/25 04:40:37;;;;;;;0.10;0.10;;;;;;;17.59;100.00;100655.25;5114795;28;20015;-51
2023/08/25 04:43:02;;;;;;;0.10;0.10;;;;;;;17.60;100.00;100655.25;5113976;28;20061;-52
2023/08/25 04:45:28;;;;;;;0.08;0.08;;;;;;;17.63;100.00;100654.38;5114752;28;20027;-52
2023/08/25 04:47:53;;;;;;;0.10;0.10;;;;;;;17.64;100.00;100656.13;5115101;28;20028;-52
2023/08/25 04:50:19;;;;;;;0.10;0.10;;;;;;;17.67;100.00;100653.50;5113581;28;20386;-48
2023/08/25 04:52:44;;;;;;;0.00;0.00;;;;;;;17.69;100.00;100649.16;5114646;28;20030;-49
2023/08/25 04:55:10;;;;;;;0.00;0.00;;;;;;;17.70;100.00;100645.69;5114397;28;20051;-52
2023/08/25 04:57:35;;;;;;;0.00;0.00;;;;;;;17.71;100.00;100642.19;5113501;28;20024;-53
2023/08/25 05:00:05;;;;;;;0.00;0.00;;;;;;;17.71;100.00;100651.75;5114501;28;20027;-52
2023/08/25 05:02:31;;;;;;;0.10;0.10;;;;;;;17.68;100.00;100642.19;5114257;28;20024;-53
2023/08/25 05:04:57;;;;;;;0.00;0.00;;;;;;;17.71;100.00;100636.13;5113737;28;20026;-52
2023/08/25 05:07:22;;;;;;;0.10;0.10;;;;;;;17.68;100.00;100626.56;5114202;28;20023;-52
2023/08/25 05:09:47;;;;;;;0.00;0.00;;;;;;;17.70;100.00;100630.03;5113765;28;20016;-52
2023/08/25 05:12:13;;;;;;;0.00;0.00;;;;;;;17.67;100.00;100619.63;5114041;28;20092;-52
2023/08/25 05:14:38;;;;;;;0.10;0.10;;;;;;;17.67;100.00;100624.81;5114479;28;20074;-52
2023/08/25 05:17:05;;;;;;;0.00;0.00;;;;;;;17.72;100.00;100625.69;5113647;28;20035;-52
2023/08/25 05:19:30;;;;;;;0.10;0.10;;;;;;;17.70;100.00;100624.84;5113766;28;20028;-53
2023/08/25 05:21:55;;;;;;;0.10;0.10;;;;;;;17.68;100.00;100618.75;5114031;28;20023;-52
2023/08/25 05:24:24;;;;;;;0.10;0.10;;;;;;;17.66;100.00;100617.88;5113156;28;20035;-52
2023/08/25 05:26:53;;;;;;;0.10;0.10;;;;;;;17.68;100.00;100623.97;5114110;28;20068;-53
2023/08/25 05:29:23;;;;;;;0.00;0.00;;;;;;;17.73;100.00;100639.59;5113839;28;20020;-52
2023/08/25 05:31:49;;;;;;;0.08;0.08;;;;;;;17.72;100.00;100628.28;5113196;28;20466;-53
2023/08/25 05:34:15;;;;;;;0.08;0.08;;;;;;;17.72;100.00;100628.28;5113457;28;20571;-52
2023/08/25 05:36:40;;;;;;;0.05;0.05;;;;;;;17.77;100.00;100636.94;5114037;28;20469;-48
2023/08/25 05:39:06;;;;;;;0.10;0.10;;;;;;;17.87;100.00;100643.00;5113331;28;20020;-52
2023/08/25 05:41:31;;;;;;;0.10;0.10;;;;;;;17.84;100.00;100626.50;5113460;28;20043;-52
2023/08/25 05:43:57;;;;;;;0.00;0.00;;;;;;;17.83;100.00;100619.56;5113906;28;20023;-51
2023/08/25 05:46:25;;;;;;;0.00;0.00;;;;;;;17.85;100.00;100617.81;5112657;28;20478;-52
2023/08/25 05:48:50;;;;;;;0.00;0.00;;;;;;;17.93;100.00;100621.28;5113849;28;20031;-52
2023/08/25 05:51:16;;;;;;;0.10;0.10;;;;;;;18.07;100.00;100622.06;5113503;28;20042;-50
2023/08/25 05:53:41;;;;;;;0.10;0.10;;;;;;;18.04;100.00;100624.72;5112874;28;20104;-54
2023/08/25 05:56:06;;;;;;;0.00;0.00;;;;;;;18.03;100.00;100622.97;5113663;28;20039;-52
2023/08/25 05:58:32;;;;;;;0.00;0.00;;;;;;;18.04;100.00;100609.06;5113269;28;20028;-52
2023/08/25 06:00:58;;;;;;;0.10;0.10;;;;;;;18.05;100.00;100609.91;5112933;28;20028;-49
2023/08/25 06:03:24;;;;;;;0.05;0.05;;;;;;;18.00;100.00;100607.34;5113053;28;20360;-52
2023/08/25 06:05:51;;;;;;;0.10;0.10;;;;;;;18.06;100.00;100614.28;5113672;28;20030;-52
2023/08/25 06:08:17;;;;;;;0.10;0.10;;;;;;;18.08;100.00;100604.72;5112429;28;20023;-52
2023/08/25 06:10:43;;;;;;;0.10;0.10;;;;;;;18.04;100.00;100597.78;5113460;28;20356;-52
2023/08/25 06:13:08;;;;;;;0.08;0.08;;;;;;;18.17;100.00;100598.59;5112833;28;20054;-52
2023/08/25 06:15:33;;;;;;;0.10;0.10;;;;;;;18.09;100.00;100602.09;5112892;28;20126;-52
2023/08/25 06:17:59;;;;;;;0.00;0.00;;;;;;;18.09;100.00;100606.44;5112657;28;20062;-51
2023/08/25 06:20:24;;;;;;;0.10;0.10;;;;;;;18.05;100.00;100602.97;5112448;28;20055;-52
2023/08/25 06:22:49;;;;;;;0.00;0.00;;;;;;;18.05;100.00;100605.59;5113285;28;20115;-52
2023/08/25 06:25:16;;;;;;;0.00;0.00;;;;;;;18.04;100.00;100632.53;5113154;28;20467;-48
2023/08/25 06:27:41;;;;;;;0.03;0.03;;;;;;;17.99;100.00;100634.28;5112480;28;20023;-49
2023/08/25 06:30:08;;;;;;;0.10;0.10;;;;;;;17.97;100.00;100636.03;5113238;28;20027;-51
2023/08/25 06:32:33;;;;;;;0.10;0.10;;;;;;;17.97;100.00;100643.84;5112801;28;20382;-49
2023/08/25 06:34:58;;;;;;;0.08;0.08;;;;;;;18.00;100.00;100627.34;5112583;28;20031;-51
2023/08/25 06:37:24;;;;;;;0.08;0.08;;;;;;;17.95;100.00;100627.38;5112730;28;20093;-49
2023/08/25 06:39:49;;;;;;;0.00;0.00;;;;;;;17.91;100.00;100618.66;5113173;28;20020;-49
2023/08/25 06:42:16;;;;;;;0.00;0.00;;;;;;;17.87;100.00;100623.88;5111979;28;20386;-50
2023/08/25 06:44:42;;;;;;;0.10;0.10;;;;;;;17.84;100.00;100616.06;5113110;28;20039;-47
2023/08/25 06:47:07;;;;;;;0.10;0.10;;;;;;;17.82;100.00;100608.28;5112943;28;20285;-50
2023/08/25 06:49:32;;;;;;;0.10;0.10;;;;;;;17.82;100.00;100634.34;5111879;28;20459;-53
2023/08/25 06:51:58;;;;;;;0.10;0.10;;;;;;;17.80;100.00;100645.66;5112856;28;20076;-47
2023/08/25 06:54:26;;;;;;;0.10;0.10;;;;;;;17.76;100.00;100634.34;5112463;28;20555;-47
2023/08/25 06:56:52;;;;;;;0.08;0.08;;;;;;;17.74;100.00;100610.03;5112239;28;20167;-50
2023/08/25 06:59:18;;;;;;;0.10;0.10;;;;;;;17.73;100.00;100584.84;5112597;28;20147;-51
2023/08/25 07:01:43;;;;;;;0.10;0.10;;;;;;;17.73;100.00;100577.91;5112770;28;20023;-51
2023/08/25 07:04:09;;;;;;;0.00;0.00;;;;;;;17.73;100.00;100567.47;5112078;28;20035;-52
2023/08/25 07:06:36;;;;;;;0.10;0.10;;;;;;;17.75;100.00;100544.88;5112793;28;20082;-49
2023/08/25 07:09:04;;;;;;;0.10;0.10;;;;;;;17.71;100.00;100550.09;5112922;28;20028;-49
2023/08/25 07:11:30;;;;;;;0.10;0.10;;;;;;;17.68;100.00;100553.59;5111842;28;20031;-52
2023/08/25 07:13:55;;;;;;;0.03;0.03;;;;;;;17.73;100.00;100571.81;5112794;28;20024;-51
2023/08/25 07:16:20;;;;;;;0.10;0.10;;;;;;;17.69;100.00;100565.75;5111821;28;20054;-49
2023/08/25 07:18:46;;;;;;;0.00;0.00;;;;;;;17.68;100.00;100557.94;5112897;28;20356;-49
2023/08/25 07:21:11;;;;;;;0.10;0.10;;;;;;;17.67;100.00;100557.06;5112782;28;20406;-51
2023/08/25 07:23:37;;;;;;;0.10;0.10;;;;;;;17.68;100.00;100552.72;5111992;28;20015;-48
2023/08/25 07:26:03;;;;;;;0.00;0.00;;;;;;;17.69;100.00;100581.38;5112981;28;20020;-49
2023/08/25 07:28:29;;;;;;;0.08;0.08;;;;;;;17.68;100.00;100615.28;5112512;28;20077;-51
2023/08/25 07:30:54;;;;;;;0.03;0.03;;;;;;;17.72;100.00;100658.72;5114186;28;20023;-48
2023/08/25 07:33:20;;;;;;;0.10;0.10;;;;;;;17.71;100.00;100693.44;5116211;28;20030;-46
2023/08/25 07:35:46;;;;;;;0.20;0.20;;;;;;;17.64;100.00;100697.81;5116277;28;20089;-49
2023/08/25 07:38:12;;;;;;;0.20;0.20;;;;;;;17.57;100.00;100633.53;5115006;28;20036;-46
2023/08/25 07:40:37;;;;;;;0.20;0.20;;;;;;;17.54;100.00;100547.56;5116199;27;20024;-51
2023/08/25 07:43:03;;;;;;;0.10;0.10;;;;;;;17.57;100.00;100592.72;5116201;28;20076;-46
2023/08/25 07:45:29;;;;;;;0.00;0.00;;;;;;;17.59;100.00;100616.19;5114960;28;20019;-50
2023/08/25 07:48:01;;;;;;;0.10;0.10;;;;;;;17.60;100.00;100617.91;5116034;28;20501;-46
2023/08/25 07:50:30;;;;;;;0.00;0.00;;;;;;;17.59;100.00;100643.09;5115827;28;20022;-46
2023/08/25 07:52:56;;;;;;;0.10;0.10;;;;;;;17.64;100.00;100653.50;5115294;28;20034;-49
2023/08/25 07:55:21;;;;;;;0.00;0.00;;;;;;;17.62;100.00;100642.22;5115428;28;20415;-46
2023/08/25 07:57:47;;;;;;;0.10;0.10;;;;;;;17.58;100.00;100651.81;5115826;28;20094;-53
2023/08/25 08:00:15;;;;;;;0.10;0.10;;;;;;;17.58;100.00;100641.38;5114869;28;20024;-45
2023/08/25 08:02:42;;;;;;;0.10;0.10;;;;;;;17.60;100.00;100638.75;5115647;28;20614;-47
2023/08/25 08:05:08;;;;;;;0.10;0.10;;;;;;;17.61;100.00;100635.25;5115562;28;20024;-50
2023/08/25 08:07:34;;;;;;;0.00;0.00;;;;;;;17.67;100.00;100640.47;5114567;28;20026;-46
2023/08/25 08:09:59;;;;;;;0.10;0.10;;;;;;;17.68;100.00;100660.44;5115582;28;20019;-45
2023/08/25 08:12:25;;;;;;;0.10;0.10;;;;;;;17.72;100.00;100659.56;5115203;28;20027;-46
2023/08/25 08:14:50;;;;;;;0.00;0.00;;;;;;;17.83;100.00;100656.94;5114560;28;20533;-47
2023/08/25 08:17:15;;;;;;;0.00;0.00;;;;;;;17.89;100.00;100643.00;5115356;28;20053;-46
2023/08/25 08:19:41;;;;;;;0.00;0.00;;;;;;;17.89;100.00;100633.44;5114799;28;20079;-45
2023/08/25 08:22:06;;;;;;;0.10;0.10;;;;;;;17.86;100.00;100641.28;5115265;28;20064;-47
2023/08/25 08:24:34;;;;;;;0.00;0.00;;;;;;;17.88;100.00;100633.44;5115058;28;20031;-51
2023/08/25 08:26:59;;;;;;;0.00;0.00;;;;;;;17.86;100.00;100622.16;5114540;28;20129;-46
2023/08/25 08:29:25;;;;;;;0.00;0.00;;;;;;;17.88;100.00;100625.63;5114818;28;20043;-51
2023/08/25 08:31:50;;;;;;;0.10;0.10;;;;;;;17.87;100.00;100618.66;5115320;28;20024;-46
2023/08/25 08:34:16;;;;;;;0.00;0.00;;;;;;;17.90;100.00;100636.91;5114143;28;20026;-50
2023/08/25 08:36:41;;;;;;;0.10;0.10;;;;;;;17.90;100.00;100619.53;5114947;28;20039;-47
2023/08/25 08:39:07;;;;;;;0.00;0.00;;;;;;;17.89;100.00;100619.53;5115110;28;20051;-50
2023/08/25 08:41:33;;;;;;;0.10;0.10;;;;;;;17.88;100.00;100639.53;5113357;28;20035;-51
2023/08/25 08:44:00;;;;;;;0.10;0.10;;;;;;;17.82;100.00;100641.28;5115143;28;20030;-49
2023/08/25 08:46:28;;;;;;;0.10;0.10;;;;;;;17.78;100.00;100651.72;5114845;28;20088;-48
2023/08/25 08:48:54;;;;;;;0.10;0.10;;;;;;;17.77;100.00;100651.75;5114216;28;20034;-49
2023/08/25 08:51:21;;;;;;;0.10;0.10;;;;;;;17.70;100.00;100656.09;5114659;28;20039;-51
2023/08/25 08:53:49;;;;;;;0.10;0.10;;;;;;;17.68;100.00;100636.13;5114542;28;20058;-46
2023/08/25 08:56:15;;;;;;;0.10;0.10;;;;;;;17.73;100.00;100632.63;5113455;28;20484;-46
2023/08/25 08:58:42;;;;;;;0.05;0.05;;;;;;;17.68;100.00;100659.59;5114813;28;20042;-46
2023/08/25 09:01:09;;;;;;;0.10;0.10;;;;;;;17.67;100.00;100663.06;5114595;28;20024;-47
2023/08/25 09:03:37;;;;;;;0.10;0.10;;;;;;;17.62;100.00;100655.25;5113663;28;20027;-45
2023/08/25 09:06:04;;;;;;;0.00;0.00;;;;;;;17.61;100.00;100658.72;5114347;28;20478;-48
2023/08/25 09:08:33;;;;;;;0.00;0.00;;;;;;;17.60;100.00;100654.41;5114020;28;20468;-48
2023/08/25 09:11:00;;;;;;;0.10;0.10;;;;;;;17.59;100.00;100650.91;5113619;28;20054;-46
2023/08/25 09:13:25;;;;;;;0.10;0.10;;;;;;;17.59;100.00;100626.59;5114126;28;20027;-44
2023/08/25 09:15:53;;;;;;;0.00;0.00;;;;;;;17.56;100.00;100647.47;5114647;28;20084;-45
2023/08/25 09:18:18;;;;;;;;;;;;;;;17.67;100.00;100661.31;5114154;28;20491;-49
2023/08/25 09:20:44;;;;;;;0.10;0.10;;;;;;;17.57;100.00;100675.22;5114204;28;19911;-46
2023/08/25 09:23:09;;;;;;;0.10;0.10;;;;;;;17.60;100.00;100654.41;5113307;28;20051;-45
2023/08/25 09:25:39;;;;;;;0.00;0.00;;;;;;;17.67;100.00;100619.63;5113851;28;20103;-44
2023/08/25 09:28:05;;;;;;;0.10;0.10;;;;;;;17.81;100.00;100622.19;5114201;28;20028;-44
2023/08/25 09:30:39;;;;;;;0.00;0.00;;;;;;;18.04;100.00;100624.72;5113149;28;20374;-48
2023/08/25 09:33:10;;;;;;;0.10;0.10;;;;;;;18.14;100.00;100629.88;5113900;28;20375;-49
2023/08/25 09:35:36;;;;;;;0.10;0.10;;;;;;;18.28;100.00;100633.28;5113609;28;20060;-47
2023/08/25 09:38:02;;;;;;;0.10;0.10;;;;;;;18.19;100.00;100630.72;5112991;28;20391;-46
2023/08/25 09:40:29;;;;;;;0.05;0.05;;;;;;;18.14;100.00;100629.88;5113729;28;20024;-48
2023/08/25 09:43:05;;;;;;;0.10;0.10;;;;;;;18.25;100.00;100634.16;5113708;28;20375;-46
2023/08/25 09:45:31;;;;;;;0.00;0.00;;;;;;;18.18;100.00;100622.03;5112724;28;20032;-47
2023/08/25 09:48:11;;;;;;;0.10;0.10;;;;;;;18.27;100.00;100623.75;5113725;28;20050;-50
2023/08/25 09:50:41;;;;;;;0.00;0.00;;;;;;;18.39;100.00;100631.47;5113510;28;20024;-48
2023/08/25 09:53:08;;;;;;;0.00;0.00;;;;;;;18.56;100.00;100639.19;5112150;28;20027;-45
2023/08/25 09:55:37;;;;;;;0.00;0.00;;;;;;;18.85;100.00;100639.84;5113768;28;20023;-50
2023/08/25 09:58:04;;;;;;;0.00;0.00;;;;;;;19.03;100.00;100639.75;5113587;28;20027;-46
2023/08/25 10:00:32;;;;;;;0.00;0.00;;;;;;;19.07;100.00;100631.00;5113164;28;20024;-48
2023/08/25 10:02:58;;;;;;;0.00;0.00;;;;;;;19.18;100.00;100637.88;5113412;28;20023;-45
2023/08/25 10:05:24;;;;;;;0.00;0.00;;;;;;;19.19;100.00;100639.59;5112591;28;20052;-48
2023/08/25 10:07:50;;;;;;;0.00;0.00;;;;;;;19.20;100.00;100636.97;5113596;28;20019;-45
2023/08/25 10:10:16;;;;;;;0.00;0.00;;;;;;;19.31;100.00;100642.09;5113055;28;20442;-50
2023/08/25 10:12:42;;;;;;;0.00;0.00;;;;;;;19.50;100.00;100639.31;5112611;28;20521;-50
2023/08/25 10:15:09;;;;;;;0.00;0.00;;;;;;;19.68;100.00;100640.84;5113455;28;20034;-49
2023/08/25 10:17:36;;;;;;;0.00;0.00;;;;;;;19.64;100.00;100636.50;5113025;28;20390;-49
2023/08/25 10:20:04;;;;;;;0.10;0.10;;;;;;;19.68;100.00;100639.09;5112624;28;20110;-50
2023/08/25 10:22:33;;;;;;;0.00;0.00;;;;;;;19.87;100.00;100645.00;5113013;28;20011;-49
2023/08/25 10:25:01;;;;;;;0.00;0.00;;;;;;;20.16;100.00;100655.97;5113337;28;20024;-48
2023/08/25 10:27:28;;;;;;;0.10;0.10;;;;;;;20.42;100.00;100652.13;5112169;28;20031;-45
2023/08/25 10:29:54;;;;;;;0.00;0.00;;;;;;;20.50;100.00;100650.25;5113230;28;20020;-50
2023/08/25 10:32:19;;;;;;;0.00;0.00;;;;;;;20.79;100.00;100651.63;5113045;28;20456;-47
2023/08/25 10:34:46;;;;;;;0.00;0.00;;;;;;;20.97;100.00;100650.47;5112523;28;20577;-49
2023/08/25 10:37:25;;;;;;;0.00;0.00;;;;;;;20.96;100.00;100646.09;5113269;28;20028;-46
2023/08/25 10:39:56;;;;;;;0.00;0.00;;;;;;;20.58;100.00;100647.53;5113057;28;20026;-46
2023/08/25 10:42:27;;;;;;;0.00;0.00;;;;;;;20.42;100.00;100647.75;5111986;28;20024;-50
2023/08/25 10:45:01;;;;;;;0.00;0.00;;;;;;;20.29;100.00;100648.84;5113330;28;20028;-45
2023/08/25 10:47:27;;;;;;;0.00;0.00;;;;;;;20.12;100.00;100649.06;5112133;28;20077;-48
2023/08/25 10:50:00;;;;;;;0.00;0.00;;;;;;;19.93;100.00;100664.13;5113049;28;20466;-49
2023/08/25 10:52:25;;;;;;;0.00;0.00;;;;;;;19.82;100.00;100662.50;5112863;28;20023;-45
2023/08/25 10:54:52;;;;;;;0.00;0.00;;;;;;;19.65;100.00;100664.41;5111994;28;20044;-46
2023/08/25 10:57:26;;;;;;;0.00;0.00;;;;;;;19.61;100.00;100658.31;5112826;28;20028;-49
2023/08/25 10:59:56;;;;;;;0.00;0.00;;;;;;;19.50;100.00;100657.59;5113015;28;20078;-50
2023/08/25 11:02:35;;;;;;;0.00;0.00;;;;;;;19.52;100.00;100650.59;5111982;28;20023;-47
2023/08/25 11:05:34;;;;;;;0.00;0.00;;;;;;;19.50;100.00;100660.22;5115454;28;20027;-48
2023/08/25 11:08:25;;;;;;;0.00;0.00;;;;;;;19.41;100.00;100651.56;5116937;28;20031;-48
2023/08/25 11:11:14;;;;;;;0.00;0.00;;;;;;;19.41;100.00;100646.34;5116649;28;20019;-47
2023/08/25 11:13:41;;;;;;;0.00;0.00;;;;;;;19.33;100.00;100645.56;5116819;28;20042;-48
2023/08/25 11:16:09;;;;;;;0.00;0.00;;;;;;;19.48;100.00;100635.81;5115950;28;20103;-50